createdAt,value
2022-10-20T00:08:35.673Z,101710.0
2022-10-20T00:18:35.729Z,101680.0
2022-10-20T00:28:11.066Z,101680.0
2022-10-20T00:38:11.120Z,101660.0
2022-10-20T00:48:11.071Z,101650.0
2022-10-20T00:58:11.072Z,101650.0
2022-10-20T01:08:11.073Z,101630.0
2022-10-20T01:18:11.080Z,101620.0
2022-10-20T01:28:11.075Z,101610.0
2022-10-20T01:38:11.081Z,101580.0
2022-10-20T01:48:11.083Z,101550.0
2022-10-20T01:58:11.086Z,101550.0
2022-10-20T02:08:35.792Z,101530.0
2022-10-20T02:18:35.766Z,101510.0
2022-10-20T02:28:10.996Z,101520.0
2022-10-20T02:38:11.103Z,101510.0
2022-10-20T02:48:35.773Z,101490.0
2022-10-20T02:58:11.109Z,101510.0
2022-10-20T03:18:11.108Z,101450.0
2022-10-20T03:28:11.108Z,101420.0
2022-10-20T03:38:11.116Z,101410.0
2022-10-20T03:48:11.115Z,101400.0
2022-10-20T04:08:11.165Z,101370.0
2022-10-20T04:18:11.043Z,101360.0
2022-10-20T04:28:11.039Z,101350.0
2022-10-20T04:38:11.039Z,101340.0
2022-10-20T04:58:11.044Z,101300.0
2022-10-20T05:08:35.769Z,101290.0
2022-10-20T05:18:11.050Z,101270.0
2022-10-20T05:28:11.053Z,101250.0
2022-10-20T05:38:35.735Z,101250.0
2022-10-20T05:48:38.355Z,101210.0
2022-10-20T05:58:11.059Z,101250.0
2022-10-20T06:08:11.079Z,101270.0
2022-10-20T06:18:11.071Z,101270.0
2022-10-20T06:28:35.746Z,101260.0
2022-10-20T07:28:11.100Z,101220.0
2022-10-20T07:38:11.104Z,101240.0
2022-10-20T08:08:11.115Z,101230.0
2022-10-20T08:28:11.131Z,101220.0
2022-10-20T08:38:11.129Z,101200.0
2022-10-20T08:48:11.130Z,101190.0
2022-10-20T09:28:11.155Z,101170.0
2022-10-20T09:38:11.152Z,101170.0
2022-10-20T09:48:11.208Z,101160.0
2022-10-20T09:58:14.989Z,101170.0
2022-10-20T10:08:11.185Z,101140.0
2022-10-20T10:18:11.172Z,101170.0
2022-10-20T10:28:35.844Z,101180.0
2022-10-20T10:38:11.198Z,101170.0
2022-10-20T10:48:11.207Z,101170.0
2022-10-20T11:08:11.192Z,101140.0
2022-10-20T11:18:11.197Z,101130.0
2022-10-20T11:28:11.219Z,101140.0
2022-10-20T11:39:00.536Z,101120.0
2022-10-20T11:48:35.873Z,101130.0
2022-10-20T11:58:11.216Z,101090.0
2022-10-20T12:08:29.278Z,101080.0
2022-10-20T12:18:35.882Z,101060.0
2022-10-20T12:28:11.216Z,101040.0
2022-10-20T12:38:11.219Z,101060.0
2022-10-20T12:48:11.224Z,101050.0
2022-10-20T12:58:35.895Z,101040.0
2022-10-20T13:08:11.242Z,101050.0
2022-10-20T13:28:11.243Z,101030.0
2022-10-20T13:38:11.253Z,101020.0
2022-10-20T13:48:11.251Z,101000.0
2022-10-20T13:58:11.259Z,100980.0
2022-10-20T14:09:00.607Z,100970.0
2022-10-20T14:19:00.605Z,100980.0
2022-10-20T14:29:00.608Z,100960.0
2022-10-20T14:38:11.392Z,100950.0
2022-10-20T14:48:11.274Z,100930.0
2022-10-20T14:58:11.292Z,100940.0
2022-10-20T15:08:11.286Z,100950.0
2022-10-20T15:18:11.292Z,100930.0
2022-10-20T15:28:11.294Z,100940.0
2022-10-20T15:38:35.965Z,100940.0
2022-10-20T15:48:11.296Z,100930.0
2022-10-20T15:58:11.298Z,100930.0
2022-10-20T16:08:11.330Z,100920.0
2022-10-20T16:18:11.310Z,100930.0
2022-10-20T16:38:11.319Z,100920.0
2022-10-20T16:48:11.321Z,100920.0
2022-10-20T16:58:11.323Z,100910.0
2022-10-20T17:08:11.325Z,100910.0
2022-10-20T17:18:35.996Z,100910.0
2022-10-20T17:28:11.326Z,100910.0
2022-10-20T17:48:36.037Z,100900.0
2022-10-20T17:58:36.016Z,100900.0
2022-10-20T18:08:36.068Z,100890.0
2022-10-20T18:18:11.348Z,100880.0
2022-10-20T18:28:11.391Z,100880.0
2022-10-20T18:38:36.023Z,100890.0
2022-10-20T18:48:11.362Z,100890.0
2022-10-20T18:58:11.357Z,100900.0
2022-10-20T19:08:36.054Z,100890.0
2022-10-20T19:18:11.371Z,100870.0
2022-10-20T19:28:11.378Z,100870.0
2022-10-20T19:38:11.377Z,100850.0
2022-10-20T19:48:36.040Z,100840.0
2022-10-20T19:58:11.381Z,100810.0
2022-10-20T20:08:11.377Z,100800.0
2022-10-20T20:18:36.054Z,100820.0
2022-10-20T20:28:11.391Z,100800.0
2022-10-20T20:48:11.405Z,100800.0
2022-10-20T20:58:11.432Z,100810.0
2022-10-20T21:08:11.397Z,100810.0
2022-10-20T21:18:11.409Z,100810.0
2022-10-20T21:28:11.417Z,100800.0
2022-10-20T21:38:36.084Z,100810.0
2022-10-20T21:58:11.418Z,100820.0
2022-10-20T22:08:11.427Z,100820.0
2022-10-20T22:18:11.429Z,100810.0
2022-10-20T22:28:11.431Z,100800.0
2022-10-20T22:38:11.439Z,100800.0
2022-10-20T22:48:11.437Z,100790.0
2022-10-20T22:58:11.448Z,100780.0
2022-10-20T23:08:11.450Z,100770.0
2022-10-20T23:18:11.454Z,100770.0
2022-10-20T23:28:11.455Z,100730.0
2022-10-20T23:38:11.454Z,100760.0
2022-10-20T23:48:36.126Z,100740.0
